• Join FlightAware (Why Join?)
  • Login
  • US Flag 
03:52PM EDT


 

Airport Tracker/Info


-or-


 

Live Flight TrackerFlight Track Log ✈ UAL1577 ✈ 12-Jul-2013 ✈ KSFO - KBOS

Flight Track Log - Related Links

Times and Time Zones

All times are in EDT time to prevent confusion due to time zone crossing. See the UAL1577 flight status page for this flight to view local times or setup timezone preferences in your user account.

Time Position Orientation Groundspeed Altitude Reporting Facility
EDT Latitude Longitude Course Direction KTS MPH feet Rate Location/Type
09:01AM 37.6200 -122.3860 112° Southeast 10 12  Level FlightAware
09:06AM 37.6210 -122.3840 58° Northeast 24 28  Level FlightAware
09:07AM 37.6200 -122.3820 122° Southeast 29 33 60 Level FlightAware
09:08AM 37.6170 -122.3770 127° Southeast 31 36 60 Level FlightAware
09:08AM 37.6170 -122.3760 90° East 20 23 120 Level FlightAware
09:08AM 37.6170 -122.3740 90° East 20 23 120 Level FlightAware
09:09AM 37.6180 -122.3720 58° Northeast 25 29 120 Level FlightAware
09:10AM 37.6200 -122.3700 38° Northeast 18 21 120 Level FlightAware
09:10AM 37.6200 -122.3680 90° East 31 36 120 Level FlightAware
09:11AM 37.6180 -122.3630 117° Southeast 19 22 180 Level FlightAware
09:12AM 37.6170 -122.3610 122° Southeast 18 21 240 Level FlightAware
09:12AM 37.6160 -122.3580 113° Southeast 17 20 240 Level FlightAware
09:13AM 37.6140 -122.3570 158° South 15 17 300 Level FlightAware
09:13AM 37.6140 -122.3580 270° West 2 2 360 Level FlightAware
09:14AM 37.6220 -122.3780 297° West 165 190 720 Level FlightAware
09:15AM 37.6310 -122.3990 298° West 183 211 800 1,740 Climbing FlightAware
09:15AM 37.6430 -122.4250 300° West 206 237 1,400 1,380 Climbing FlightAware
09:15AM 37.6500 -122.4430 296° West 222 255 1,800 2,220 Climbing FlightAware
09:16AM 37.6620 -122.4710 298° West 223 257 2,900 2,400 Climbing FlightAware
09:16AM 37.6700 -122.4910 297° West 234 269 3,400 1,740 Climbing FlightAware
09:16AM 37.6900 -122.5210 310° West 262 302 4,200 1,860 Climbing FlightAware
09:17AM 37.7020 -122.5260 342° North 263 303 4,600 2,100 Climbing FlightAware
09:17AM 37.7330 -122.5340 348° North 274 315 5,500 2,040 Climbing FlightAware
09:17AM 37.7740 -122.5290 North 286 329 6,600 2,160 Climbing FlightAware
09:18AM 37.7940 -122.5270 North 288 331 7,200 2,040 Climbing FlightAware
09:18AM 37.8310 -122.5130 17° North 303 349 8,100 1,860 Climbing FlightAware
09:18AM 37.8480 -122.4920 44° Northeast 309 356 8,600 2,400 Climbing FlightAware
09:19AM 37.8690 -122.4580 52° Northeast 306 352 9,700 1,800 Climbing FlightAware
09:20AM 37.9040 -122.4040 51° Northeast 335 386 10,500 1,260 Climbing FlightAware
09:20AM 37.9450 -122.3400 51° Northeast 360 414 11,400 1,620 Climbing FlightAware
09:21AM 37.9870 -122.2740 51° Northeast 375 432 12,700 2,100 Climbing FlightAware
09:22AM 38.0320 -122.2040 51° Northeast 379 436 14,200 2,220 Climbing FlightAware
09:22AM 38.0830 -122.1230 51° Northeast 386 444 15,900 2,040 Climbing FlightAware
09:23AM 38.1290 -122.0510 51° Northeast 394 453 17,200 1,800 Climbing FlightAware
09:24AM 38.1820 -121.9690 51° Northeast 403 464 18,500 1,680 Climbing FlightAware
09:24AM 38.2320 -121.8900 51° Northeast 408 470 19,700 1,560 Climbing FlightAware
09:25AM 38.2740 -121.8230 51° Northeast 415 478 20,600 1,500 Climbing FlightAware
09:26AM 38.3330 -121.7280 52° Northeast 427 491 21,800 1,500 Climbing FlightAware
09:26AM 38.3830 -121.6500 51° Northeast 431 496 22,800 1,380 Climbing FlightAware
09:27AM 38.4340 -121.5670 52° Northeast 437 503 23,700 1,200 Climbing FlightAware
09:28AM 38.4890 -121.4750 53° Northeast 446 513 24,600 1,200 Climbing FlightAware
09:29AM 38.5330 -121.3980 54° Northeast 451 519 25,300 1,080 Climbing FlightAware
09:29AM 38.5820 -121.3140 53° Northeast 457 526 26,000 1,140 Climbing FlightAware
09:30AM 38.6190 -121.2500 53° Northeast 461 531 26,600 1,080 Climbing FlightAware
09:30AM 38.6720 -121.1590 53° Northeast 465 535 27,300 960 Climbing FlightAware
09:31AM 38.7180 -121.0800 53° Northeast 470 541 27,900 900 Climbing FlightAware
09:32AM 38.7700 -120.9900 53° Northeast 475 547 28,500 960 Climbing FlightAware
09:32AM 38.8290 -120.8870 54° Northeast 480 552 29,300 1,020 Climbing FlightAware
09:33AM 38.8810 -120.7970 53° Northeast 478 550 30,000 1,140 Climbing FlightAware
09:34AM 38.9400 -120.6970 53° Northeast 474 545 30,900 1,020 Climbing FlightAware
09:34AM 38.9910 -120.6070 54° Northeast 474 545 31,500 780 Climbing FlightAware
09:35AM 39.0470 -120.4970 57° Northeast 476 548 32,100 780 Climbing FlightAware
09:36AM 39.0860 -120.4100 60° Northeast 477 549 32,600 540 Climbing FlightAware
09:37AM 39.1510 -120.2630 60° Northeast 478 550 33,000 240 Climbing FlightAware
09:37AM 39.1940 -120.1670 60° Northeast 478 550 33,000  Level FlightAware
09:38AM 39.2430 -120.0570 60° Northeast 477 549 33,000  Level FlightAware
09:39AM 39.2870 -119.9570 60° Northeast 476 548 33,000  Level FlightAware
09:40AM 39.3320 -119.8560 60° Northeast 476 548 33,000  Level FlightAware
09:40AM 39.3750 -119.7600 60° Northeast 477 549 33,000  Level FlightAware
09:41AM 39.4190 -119.6580 61° Northeast 477 549 33,000  Level FlightAware
09:42AM 39.4630 -119.5590 60° Northeast 479 551 33,000  Level FlightAware
09:42AM 39.5110 -119.4490 60° Northeast 480 552 33,000  Level FlightAware
09:43AM 39.5590 -119.3390 60° Northeast 482 555 33,000  Level FlightAware
09:44AM 39.6030 -119.2380 60° Northeast 483 556 33,000  Level FlightAware
09:44AM 39.6490 -119.1310 61° Northeast 486 559 33,000  Level FlightAware
09:45AM 39.6880 -119.0410 61° Northeast 487 560 33,000  Level FlightAware
09:46AM 39.7330 -118.9360 61° Northeast 489 563 33,000  Level FlightAware
09:46AM 39.7810 -118.8220 61° Northeast 491 565 33,000  Level FlightAware
09:47AM 39.8250 -118.7190 61° Northeast 494 568 33,000  Level FlightAware
09:48AM 39.8720 -118.6100 61° Northeast 496 571 33,000  Level FlightAware
09:48AM 39.9200 -118.4970 61° Northeast 499 574 33,000  Level FlightAware
09:49AM 39.9630 -118.3950 61° Northeast 503 579 33,000  Level FlightAware
09:50AM 40.0050 -118.2950 61° Northeast 507 583 33,000  Level FlightAware
09:50AM 40.0550 -118.1770 61° Northeast 512 589 33,000  Level FlightAware
09:51AM 40.0960 -118.0790 61° Northeast 514 592 33,000  Level FlightAware
09:52AM 40.1350 -117.9860 61° Northeast 514 592 33,000  Level FlightAware
09:52AM 40.1700 -117.9030 61° Northeast 514 592 33,000  Level FlightAware
09:53AM 40.2320 -117.7570 61° Northeast 514 592 33,000  Level FlightAware
09:54AM 40.2670 -117.6740 61° Northeast 514 592 33,000  Level FlightAware
09:55AM 40.3140 -117.5630 61° Northeast 514 592 33,000  Level FlightAware
09:55AM 40.3490 -117.4790 61° Northeast 514 592 33,000  Level FlightAware
09:56AM 40.3940 -117.3720 61° Northeast 514 592 33,000  Level FlightAware
09:57AM 40.4510 -117.2380 61° Northeast 514 592 33,000  Level FlightAware
09:58AM 40.4870 -117.1540 61° Northeast 514 592 33,000  Level FlightAware
09:59AM 40.5350 -117.0400 61° Northeast 514 592 33,000  Level FlightAware
09:59AM 40.5720 -116.9520 61° Northeast 514 592 33,000  Level FlightAware
10:00AM 40.6080 -116.8650 61° Northeast 514 592 33,000  Level FlightAware
10:01AM 40.6550 -116.7540 61° Northeast 514 592 33,000  Level FlightAware
10:05AM 41.0479 -115.6800 64° Northeast 521 600 33,000  Level FlightAware ADS-B
10:06AM 41.0808 -115.5930 63° Northeast 521 600 33,000  Level FlightAware ADS-B
10:07AM 41.1455 -115.4200 64° Northeast 521 600 33,000  Level FlightAware ADS-B
10:08AM 41.2211 -115.2180 63° Northeast 521 600 33,000  Level FlightAware ADS-B
10:09AM 41.2541 -115.1280 64° Northeast 520 598 33,000  Level FlightAware ADS-B
10:09AM 41.2862 -115.0420 64° Northeast 519 597 33,000  Level FlightAware ADS-B
10:10AM 41.3222 -114.9440 64° Northeast 520 598 33,000  Level FlightAware ADS-B
10:10AM 41.3539 -114.8570 64° Northeast 520 598 33,000  Level FlightAware ADS-B
10:11AM 41.3914 -114.7550 64° Northeast 518 596 33,000  Level FlightAware ADS-B
10:11AM 41.4242 -114.6650 64° Northeast 517 595 33,000  Level FlightAware ADS-B
10:12AM 41.4558 -114.5780 64° Northeast 516 594 33,000  Level FlightAware ADS-B
10:12AM 41.4876 -114.4910 64° Northeast 514 592 33,000  Level FlightAware ADS-B
10:13AM 41.5242 -114.3890 64° Northeast 513 590 33,000  Level FlightAware ADS-B
10:13AM 41.5550 -114.3040 64° Northeast 513 590 33,000  Level FlightAware
10:14AM 41.5657 -114.2730 65° Northeast 513 590 33,000  Level FlightAware ADS-B
10:14AM 41.5973 -114.1850 64° Northeast 511 588 33,000  Level FlightAware ADS-B
10:15AM 41.6279 -114.1000 64° Northeast 511 588 33,000  Level FlightAware ADS-B
10:15AM 41.6595 -114.0120 64° Northeast 511 588 33,000  Level FlightAware ADS-B
10:16AM 41.6904 -113.9250 65° Northeast 511 588 33,000  Level FlightAware ADS-B
10:16AM 41.7209 -113.8390 65° Northeast 512 589 33,000  Level FlightAware ADS-B
10:17AM 41.7522 -113.7510 64° Northeast 514 592 33,000  Level FlightAware ADS-B
10:17AM 41.7828 -113.6640 65° Northeast 515 593 33,000  Level FlightAware ADS-B
10:18AM 41.8201 -113.5570 65° Northeast 517 595 33,000  Level FlightAware ADS-B
10:18AM 41.8513 -113.4680 65° Northeast 517 595 33,000  Level FlightAware ADS-B
10:19AM 41.8864 -113.3670 65° Northeast 517 595 33,000  Level FlightAware ADS-B
10:19AM 41.9208 -113.2680 65° Northeast 517 595 33,000  Level FlightAware ADS-B
10:20AM 41.9538 -113.1720 65° Northeast 517 595 33,000  Level FlightAware ADS-B
10:20AM 41.9854 -113.0810 65° Northeast 516 594 33,000  Level FlightAware ADS-B
10:21AM 42.0184 -112.9850 65° Northeast 515 593 33,000  Level FlightAware ADS-B
10:22AM 42.0503 -112.8920 65° Northeast 515 593 33,000  Level FlightAware ADS-B
10:22AM 42.0827 -112.7970 65° Northeast 515 593 33,000  Level FlightAware ADS-B
10:23AM 42.1448 -112.6140 65° Northeast 514 592 33,000  Level FlightAware ADS-B
10:24AM 42.1763 -112.5210 65° Northeast 515 593 33,000  Level FlightAware ADS-B
10:25AM 42.2376 -112.3370 66° East 515 593 33,000  Level FlightAware ADS-B
10:25AM 42.2720 -112.2310 66° East 518 596 33,000  Level FlightAware
10:26AM 42.2873 -112.1850 66° East 519 597 33,000  Level FlightAware ADS-B
10:26AM 42.3258 -112.0660 66° East 520 598 33,000  Level FlightAware ADS-B
10:27AM 42.3550 -111.9750 67° East 521 600 33,000  Level FlightAware ADS-B
10:27AM 42.3843 -111.8840 66° East 522 601 33,000  Level FlightAware ADS-B
10:28AM 42.4237 -111.7620 66° East 522 601 33,000  Level FlightAware ADS-B
10:29AM 42.4560 -111.6620 66° East 522 601 33,000  Level FlightAware
10:29AM 42.4748 -111.6020 67° East 523 602 33,000  Level FlightAware ADS-B
10:29AM 42.5077 -111.4980 67° East 522 601 33,000  Level FlightAware ADS-B
10:31AM 42.5790 -111.2770 66° East 521 600 33,000  Level FlightAware
10:31AM 42.6090 -111.1850 66° East 521 600 33,000  Level FlightAware
10:32AM 42.6500 -111.0610 66° East 521 600 33,000  Level FlightAware
10:33AM 42.6800 -110.9690 66° East 521 600 33,000  Level FlightAware
10:34AM 42.7500 -110.7550 66° East 521 600 33,000  Level FlightAware
10:35AM 42.7800 -110.6630 66° East 521 600 33,000  Level FlightAware
10:36AM 42.8310 -110.5080 66° East 521 600 33,000  Level FlightAware
10:37AM 42.8710 -110.3850 66° East 521 600 33,000  Level FlightAware
10:37AM 42.9010 -110.2930 66° East 521 600 33,000  Level FlightAware
10:38AM 42.9310 -110.2010 66° East 521 600 33,000  Level FlightAware
10:39AM 42.9710 -110.0780 66° East 521 600 33,000  Level FlightAware
10:39AM 43.0010 -109.9860 66° East 521 600 33,000  Level FlightAware
10:40AM 43.0410 -109.8630 66° East 521 600 33,000  Level FlightAware
10:41AM 43.1422 -109.4183 66° East 512 589 33,000  Level Salt Lake Center
10:42AM 43.2061 -109.2025 68° East 512 589 33,000  Level Salt Lake Center
10:43AM 43.2581 -109.0194 69° East 516 594 33,000  Level Salt Lake Center
10:44AM 43.3106 -108.8378 68° East 516 594 33,000  Level Salt Lake Center
10:45AM 43.3636 -108.6550 68° East 517 595 33,000  Level Salt Lake Center
10:46AM 43.4153 -108.4722 69° East 516 594 33,000  Level Salt Lake Center
10:47AM 43.4669 -108.2856 69° East 522 601 33,000  Level Salt Lake Center
10:48AM 43.5328 -108.0664 67° East 521 600 33,000  Level Salt Lake Center
10:49AM 43.5861 -107.8842 68° East 517 595 33,000  Level Salt Lake Center
10:50AM 43.6394 -107.7019 68° East 516 594 33,000  Level Salt Lake Center
10:51AM 43.6922 -107.5189 68° East 518 596 33,000  Level Salt Lake Center
10:53AM 43.7444 -107.3361 68° East 514 592 33,000  Level Salt Lake Center
10:54AM 43.8069 -107.1169 68° East 514 592 33,000  Level Salt Lake Center
10:55AM 43.8589 -106.9325 69° East 515 593 33,000  Level Salt Lake Center
10:56AM 43.9144 -106.7389 68° East 515 593 33,000  Level Salt Lake Center
10:56AM 43.9492 -106.6167 68° East 516 594 33,000  Level Denver Center
10:57AM 43.9986 -106.4406 69° East 511 588 33,000  Level Denver Center
10:58AM 44.0528 -106.2322 70° East 512 589 33,000  Level Denver Center
10:59AM 44.0967 -106.0525 71° East 513 590 33,000  Level Denver Center
11:00AM 44.1486 -105.8433 71° East 512 589 33,000  Level Denver Center
11:01AM 44.1933 -105.6647 71° East 511 588 33,000  Level Denver Center
11:02AM 44.2439 -105.4556 71° East 509 586 33,000  Level Denver Center
11:04AM 44.2878 -105.2736 71° East 512 589 33,000  Level Denver Center
11:05AM 44.3308 -105.0925 72° East 514 592 33,000  Level Denver Center
11:06AM 44.3814 -104.8814 71° East 512 589 33,000  Level Denver Center
11:07AM 44.4253 -104.7003 71° East 512 589 33,000  Level Denver Center
11:08AM 44.4733 -104.4906 72° East 506 582 33,000  Level Denver Center
11:09AM 44.5150 -104.3119 72° East 504 580 33,000  Level Denver Center
11:10AM 44.5644 -104.1019 72° East 507 583 33,000  Level Denver Center
11:11AM 44.6044 -103.9217 73° East 506 582 33,000  Level Denver Center
11:12AM 44.6517 -103.7111 72° East 505 581 33,000  Level Denver Center
11:13AM 44.6919 -103.5272 73° East 511 588 33,000  Level Denver Center
11:14AM 44.7342 -103.3422 72° East 505 581 33,000  Level Denver Center
11:15AM 44.7761 -103.1536 73° East 504 580 33,000  Level Denver Center
11:16AM 44.8039 -103.0014 76° East 507 583 33,000  Level Minneapolis Center
11:17AM 44.8461 -102.8114 73° East 507 583 33,000  Level Minneapolis Center
11:18AM 44.8869 -102.6203 73° East 508 585 33,000  Level Minneapolis Center
11:19AM 44.9353 -102.3919 73° East 508 585 33,000  Level Minneapolis Center
11:20AM 44.9842 -102.1633 73° East 507 583 33,000  Level Minneapolis Center
11:21AM 45.0250 -101.9719 73° East 508 585 33,000  Level Minneapolis Center
11:22AM 45.0653 -101.7811 73° East 508 585 33,000  Level Minneapolis Center
11:23AM 45.0933 -101.5842 79° East 511 588 33,000  Level Minneapolis Center
11:24AM 45.1161 -101.3878 81° East 508 585 33,000  Level Minneapolis Center
11:25AM 45.1378 -101.1906 81° East 507 583 33,000  Level Minneapolis Center
11:26AM 45.1672 -100.9531 80° East 511 588 33,000  Level Minneapolis Center
11:27AM 45.1875 -100.7581 82° East 503 579 33,000  Level Minneapolis Center
11:28AM 45.2083 -100.5633 81° East 500 575 33,000  Level Minneapolis Center
11:29AM 45.2286 -100.3678 82° East 499 574 33,000  Level Minneapolis Center
11:30AM 45.2497 -100.1731 81° East 495 570 33,000  Level Minneapolis Center
11:31AM 45.2706 -99.9725 82° East 501 577 33,000  Level Minneapolis Center
11:32AM 45.2900 -99.7708 82° East 506 582 33,000  Level Minneapolis Center
11:33AM 45.3078 -99.5714 83° East 506 582 33,000  Level Minneapolis Center
11:34AM 45.3308 -99.3364 82° East 500 575 33,000  Level Minneapolis Center
11:35AM 45.3494 -99.1422 82° East 497 572 33,000  Level Minneapolis Center
11:41AM 45.4090 -98.1210 82° East 494 568 33,000  Level FlightAware
11:41AM 45.4040 -97.9800 93° East 495 570 33,000  Level FlightAware
11:42AM 45.3990 -97.8380 93° East 494 568 33,000  Level FlightAware
11:43AM 45.3930 -97.6830 93° East 494 568 33,000  Level FlightAware
11:44AM 45.3880 -97.5520 93° East 494 568 33,000  Level FlightAware
11:44AM 45.3820 -97.4090 93° East 493 567 33,000  Level FlightAware
11:45AM 45.3770 -97.2850 93° East 493 567 33,000  Level FlightAware
11:46AM 45.3710 -97.1440 93° East 492 566 33,000  Level FlightAware
11:46AM 45.3650 -97.0080 94° East 491 565 33,000  Level FlightAware
11:47AM 45.3590 -96.8690 93° East 490 564 33,000  Level FlightAware
11:48AM 45.3540 -96.7470 93° East 488 562 33,000  Level FlightAware
11:48AM 45.3470 -96.6120 94° East 487 560 33,000  Level FlightAware
11:49AM 45.3410 -96.4820 94° East 486 559 33,000  Level FlightAware
11:50AM 45.3330 -96.3210 94° East 487 560 33,000  Level FlightAware
11:51AM 45.3240 -96.1590 94° East 489 563 33,000  Level FlightAware
11:51AM 45.3180 -96.0390 94° East 489 563 33,000  Level FlightAware
11:52AM 45.3110 -95.9130 94° East 489 563 33,000  Level FlightAware
11:53AM 45.3070 -95.8280 94° East 488 562 33,000  Level FlightAware
11:53AM 45.2990 -95.6960 95° East 487 560 33,000  Level FlightAware
11:54AM 45.2920 -95.5730 95° East 486 559 33,000  Level FlightAware
11:55AM 45.2850 -95.4350 94° East 485 558 33,000  Level FlightAware
11:55AM 45.2770 -95.3110 95° East 485 558 33,000  Level FlightAware
11:56AM 45.2700 -95.1860 95° East 485 558 33,000  Level FlightAware
11:57AM 45.2620 -95.0540 95° East 485 558 33,000  Level FlightAware
11:57AM 45.2530 -94.9170 95° East 485 558 33,000  Level FlightAware
11:58AM 45.2450 -94.7830 95° East 483 556 33,000  Level FlightAware
11:59AM 45.2380 -94.6750 95° East 483 556 33,000  Level FlightAware
11:59AM 45.2290 -94.5370 95° East 482 555 33,000  Level FlightAware
12:00PM 45.2190 -94.3970 96° East 480 552 33,000  Level FlightAware
12:01PM 45.2100 -94.2620 95° East 479 551 33,000  Level FlightAware
12:02PM 45.2010 -94.1310 96° East 477 549 33,000  Level FlightAware
12:02PM 45.1920 -94.0010 96° East 477 549 33,000  Level FlightAware
12:03PM 45.1830 -93.8710 96° East 477 549 33,000  Level FlightAware
12:04PM 45.1730 -93.7420 96° East 477 549 33,000  Level FlightAware
12:04PM 45.1650 -93.6210 95° East 476 548 33,000  Level FlightAware
12:05PM 45.1550 -93.4990 97° East 475 547 33,000  Level FlightAware
12:06PM 45.1470 -93.3860 96° East 474 545 33,000  Level FlightAware
12:06PM 45.1350 -93.2490 97° East 474 545 33,000  Level FlightAware
12:07PM 45.1240 -93.1240 97° East 473 544 33,000  Level FlightAware
12:08PM 45.1120 -92.9880 97° East 473 544 33,000  Level FlightAware
12:08PM 45.1020 -92.8730 97° East 473 544 33,000  Level FlightAware
12:09PM 45.0900 -92.7410 97° East 471 542 33,000  Level FlightAware
12:10PM 45.0770 -92.5920 97° East 470 541 33,000  Level FlightAware
12:11PM 45.0550 -92.3590 98° East 467 537 33,000  Level FlightAware
12:12PM 45.0430 -92.2260 97° East 467 537 33,000  Level FlightAware
12:12PM 45.0320 -92.1250 99° East 466 536 33,000  Level FlightAware
12:13PM 45.0180 -91.9920 98° East 466 536 33,000  Level FlightAware
12:14PM 45.0060 -91.8770 98° East 468 539 33,000  Level FlightAware
12:14PM 44.9940 -91.7640 99° East 469 540 33,000  Level FlightAware
12:15PM 44.9840 -91.6660 98° East 469 540 33,000  Level FlightAware
12:16PM 44.9680 -91.5270 99° East 470 541 33,000  Level FlightAware
12:16PM 44.9550 -91.4090 99° East 470 541 33,000  Level FlightAware
12:17PM 44.9410 -91.2810 99° East 470 541 33,000  Level FlightAware
12:18PM 44.9270 -91.1500 99° East 469 540 33,000  Level FlightAware
12:18PM 44.9140 -91.0360 99° East 466 536 33,000  Level FlightAware
12:19PM 44.8980 -90.8910 99° East 463 533 33,000  Level FlightAware
12:20PM 44.8840 -90.7730 99° East 460 529 33,000  Level FlightAware
12:21PM 44.8710 -90.6620 99° East 459 528 33,000  Level FlightAware
12:21PM 44.8560 -90.5320 99° East 458 527 33,000  Level FlightAware
12:22PM 44.8430 -90.4250 100° East 456 525 33,000  Level FlightAware
12:23PM 44.8290 -90.3090 100° East 455 524 33,000  Level FlightAware
12:23PM 44.8140 -90.1780 99° East 455 524 33,000  Level FlightAware
12:24PM 44.8010 -90.0720 100° East 455 524 33,000  Level FlightAware
12:25PM 44.7800 -89.9000 100° East 455 524 33,000  Level FlightAware
12:26PM 44.7650 -89.7810 100° East 457 526 33,000  Level FlightAware
12:26PM 44.7520 -89.6700 99° East 456 525 33,000  Level FlightAware
12:27PM 44.7380 -89.5710 101° East 457 526 33,000  Level FlightAware
12:28PM 44.7210 -89.4330 100° East 457 526 33,000  Level FlightAware
12:28PM 44.7070 -89.3290 101° East 456 525 33,000  Level FlightAware
12:29PM 44.6900 -89.1920 100° East 455 524 33,000  Level FlightAware
12:30PM 44.6730 -89.0630 100° East 455 524 33,000  Level FlightAware
12:31PM 44.6540 -88.9170 100° East 455 524 33,000  Level FlightAware
12:31PM 44.6360 -88.7880 101° East 456 525 33,000  Level FlightAware
12:32PM 44.6210 -88.6740 100° East 456 525 33,000  Level FlightAware
12:33PM 44.6040 -88.5490 101° East 455 524 33,000  Level FlightAware
12:33PM 44.5880 -88.4330 101° East 451 519 33,000  Level FlightAware
12:34PM 44.5740 -88.3300 101° East 450 518 33,000  Level FlightAware
12:35PM 44.5550 -88.1990 101° East 449 517 33,000  Level FlightAware
12:35PM 44.5360 -88.1050 106° East 454 522 33,000  Level FlightAware
12:36PM 44.5130 -87.9940 106° East 454 522 33,000  Level FlightAware
12:37PM 44.4910 -87.8900 106° East 454 522 33,000  Level FlightAware
12:37PM 44.4620 -87.7530 106° East 454 522 33,000  Level FlightAware
12:38PM 44.4380 -87.6400 107° East 453 521 33,000  Level FlightAware
12:39PM 44.4110 -87.5160 107° East 451 519 33,000  Level FlightAware
12:39PM 44.3900 -87.4170 107° East 451 519 33,000  Level FlightAware
12:40PM 44.3670 -87.3110 107° East 449 517 33,000 180 Level FlightAware
12:41PM 44.3340 -87.1600 107° East 457 526 33,300 540 Climbing FlightAware
12:42PM 44.3100 -87.0510 107° East 458 527 33,900 1,140 Climbing FlightAware
12:42PM 44.2800 -86.9140 107° East 452 520 35,000 720 Climbing FlightAware
12:43PM 44.2520 -86.7920 108° East 452 520 35,000  Level FlightAware
12:44PM 44.2280 -86.6820 107° East 452 520 35,000  Level FlightAware
12:44PM 44.2020 -86.5660 107° East 451 519 35,000  Level FlightAware
12:45PM 44.1790 -86.4660 108° East 450 518 35,000  Level FlightAware
12:46PM 44.1520 -86.3450 107° East 450 518 35,000  Level FlightAware
12:46PM 44.1270 -86.2350 108° East 447 514 35,000  Level FlightAware
12:47PM 44.1000 -86.1200 108° East 448 516 35,000  Level FlightAware
12:48PM 44.0740 -86.0050 107° East 449 517 35,000  Level FlightAware
12:48PM 44.0490 -85.9000 108° East 450 518 35,000  Level FlightAware
12:49PM 44.0230 -85.7850 107° East 451 519 35,000  Level FlightAware
12:50PM 43.9940 -85.6630 108° East 453 521 35,000  Level FlightAware
12:51PM 43.9710 -85.5630 108° East 453 521 35,000  Level FlightAware
12:51PM 43.9420 -85.4430 109° East 454 522 35,000  Level FlightAware
12:52PM 43.9130 -85.3200 108° East 453 521 35,000  Level FlightAware
12:53PM 43.8870 -85.2120 108° East 453 521 35,000  Level FlightAware
12:53PM 43.8580 -85.0890 108° East 450 518 35,000  Level FlightAware
12:54PM 43.8350 -84.9940 109° East 448 516 35,000  Level FlightAware
12:55PM 43.8080 -84.8840 109° East 446 513 35,000  Level FlightAware
12:55PM 43.7820 -84.7780 109° East 444 511 35,000  Level FlightAware
12:56PM 43.7510 -84.6530 109° East 443 510 35,000  Level FlightAware
12:57PM 43.7250 -84.5460 109° East 442 509 35,000  Level FlightAware
12:57PM 43.6960 -84.4290 109° East 440 506 35,000  Level FlightAware
12:58PM 43.6690 -84.3180 109° East 441 507 35,000  Level FlightAware
12:59PM 43.6450 -84.2230 109° East 439 505 35,000  Level FlightAware
01:00PM 43.6140 -84.1010 109° East 441 507 35,000  Level FlightAware
01:00PM 43.5870 -83.9940 109° East 442 509 35,000  Level FlightAware
01:01PM 43.5590 -83.8800 109° East 448 516 35,000  Level FlightAware
01:02PM 43.5280 -83.7580 109° East 451 519 35,000  Level FlightAware
01:02PM 43.5010 -83.6530 109° East 452 520 35,000  Level FlightAware
01:03PM 43.4740 -83.5490 110° East 452 520 35,000  Level FlightAware
01:04PM 43.4450 -83.4400 110° East 451 519 35,000  Level FlightAware
01:04PM 43.4180 -83.3340 109° East 445 512 35,000  Level FlightAware
01:05PM 43.3880 -83.2200 110° East 444 511 35,000  Level FlightAware
01:06PM 43.3600 -83.1110 109° East 443 510 35,000  Level FlightAware
01:06PM 43.3260 -82.9830 110° East 442 509 35,000  Level FlightAware
01:07PM 43.3010 -82.8890 110° East 442 509 35,000  Level FlightAware
01:08PM 43.2760 -82.7930 110° East 441 507 35,000  Level FlightAware
01:08PM 43.2540 -82.6760 104° East 433 498 35,000  Level FlightAware
01:09PM 43.2460 -82.5670 96° East 433 498 35,000  Level FlightAware
01:10PM 43.2390 -82.4510 95° East 437 503 35,000  Level FlightAware
01:10PM 43.2330 -82.3560 95° East 438 504 35,000  Level FlightAware
01:11PM 43.2240 -82.2260 95° East 437 503 35,000  Level FlightAware
01:12PM 43.2110 -82.0320 95° East 436 502 35,000  Level FlightAware
01:13PM 43.2040 -81.9310 95° East 433 498 35,000  Level FlightAware
01:14PM 43.1970 -81.8360 96° East 430 495 35,000  Level FlightAware
01:14PM 43.1890 -81.7120 95° East 427 491 35,000  Level FlightAware
01:15PM 43.1830 -81.6280 96° East 427 491 35,000  Level FlightAware
01:16PM 43.1720 -81.4770 96° East 426 490 35,000  Level FlightAware
01:16PM 43.1640 -81.3650 96° East 426 490 35,000  Level FlightAware
01:17PM 43.1550 -81.2500 96° East 426 490 35,000  Level FlightAware
01:18PM 43.1470 -81.1420 96° East 428 493 35,000  Level FlightAware
01:19PM 43.1390 -81.0360 96° East 431 496 35,000  Level FlightAware
01:19PM 43.1290 -80.9150 96° East 437 503 35,000  Level FlightAware
01:20PM 43.1210 -80.8040 96° East 439 505 35,000  Level FlightAware
01:21PM 43.1130 -80.7040 96° East 440 506 35,000  Level FlightAware
01:21PM 43.1010 -80.5620 97° East 440 506 35,000  Level FlightAware
01:22PM 43.0940 -80.4700 96° East 442 509 35,000  Level FlightAware
01:23PM 43.0850 -80.3620 96° East 440 506 35,000  Level FlightAware
01:23PM 43.0770 -80.2750 97° East 433 498 35,000  Level FlightAware
01:24PM 43.0700 -80.1870 96° East 428 493 35,000  Level FlightAware
01:24PM 43.0590 -80.0630 97° East 429 494 35,000  Level FlightAware
01:25PM 43.0500 -79.9540 96° East 428 493 35,000  Level FlightAware
01:26PM 43.0400 -79.8410 97° East 428 493 35,000  Level FlightAware
01:27PM 43.0320 -79.7440 96° East 429 494 35,000  Level FlightAware
01:27PM 43.0210 -79.6250 97° East 429 494 35,000  Level FlightAware
01:28PM 43.0110 -79.5170 97° East 431 496 35,000  Level FlightAware
01:28PM 43.0040 -79.4390 97° East 433 498 35,000  Level FlightAware
01:29PM 42.9930 -79.3180 97° East 435 501 35,000  Level FlightAware
01:30PM 42.9820 -79.2050 98° East 438 504 35,000  Level FlightAware
01:31PM 42.9710 -79.0810 97° East 440 506 35,000  Level FlightAware
01:31PM 42.9600 -78.9710 98° East 442 509 35,000  Level FlightAware
01:32PM 42.9500 -78.8610 97° East 445 512 35,000  Level FlightAware
01:33PM 42.9360 -78.7210 98° East 448 516 35,000  Level FlightAware
01:34PM 42.9280 -78.5820 94° East 459 528 35,000  Level FlightAware
01:34PM 42.9260 -78.4770 91° East 460 529 35,000  Level FlightAware
01:35PM 42.9240 -78.3770 92° East 460 529 35,000  Level FlightAware
01:35PM 42.9220 -78.2610 91° East 461 531 35,000  Level FlightAware
01:36PM 42.9200 -78.1640 92° East 462 532 35,000  Level FlightAware
01:37PM 42.9170 -78.0420 92° East 464 534 35,000  Level FlightAware
01:37PM 42.9140 -77.9110 92° East 465 535 35,000  Level FlightAware
01:38PM 42.9110 -77.8090 92° East 466 536 35,000  Level FlightAware
01:39PM 42.9090 -77.6940 91° East 467 537 35,000  Level FlightAware
01:39PM 42.9060 -77.5570 92° East 468 539 35,000  Level FlightAware
01:40PM 42.9030 -77.4450 92° East 469 540 35,000  Level FlightAware
01:41PM 42.9000 -77.3220 92° East 470 541 35,000  Level FlightAware
01:41PM 42.8960 -77.1860 92° East 470 541 35,000  Level FlightAware
01:42PM 42.8920 -77.0520 92° East 471 542 35,000  Level FlightAware
01:43PM 42.8900 -76.9810 92° East 471 542 35,000 -120 Level FlightAware
01:43PM 42.8860 -76.8740 93° East 471 542 34,900 -600 Descending FlightAware
01:44PM 42.8820 -76.7430 92° East 464 534 34,200 -720 Descending FlightAware
01:45PM 42.8790 -76.6380 92° East 467 537 34,000 -180 Descending FlightAware
01:45PM 42.8750 -76.5250 93° East 472 543 34,000  Level FlightAware
01:46PM 42.8700 -76.3930 93° East 478 550 34,000  Level FlightAware
01:47PM 42.8660 -76.2740 93° East 479 551 34,000  Level FlightAware
01:47PM 42.8610 -76.1510 93° East 480 552 34,000  Level FlightAware
01:48PM 42.8560 -76.0130 93° East 482 555 34,000 -420 Level FlightAware
01:49PM 42.8500 -75.8850 94° East 484 557 33,400 -780 Descending FlightAware
01:49PM 42.8450 -75.7600 93° East 486 559 33,000 -360 Descending FlightAware
01:50PM 42.8410 -75.6560 93° East 486 559 33,000  Level FlightAware
01:51PM 42.8360 -75.5330 93° East 486 559 33,000  Level FlightAware
01:51PM 42.8300 -75.3920 93° East 487 560 33,000  Level FlightAware
01:52PM 42.8250 -75.2820 94° East 487 560 33,000  Level FlightAware
01:53PM 42.8190 -75.1590 94° East 487 560 33,000  Level FlightAware
01:53PM 42.8130 -75.0330 94° East 489 563 33,000  Level FlightAware
01:54PM 42.8060 -74.8960 94° East 490 564 33,000  Level FlightAware
01:55PM 42.8000 -74.7700 94° East 490 564 33,000  Level FlightAware
01:55PM 42.7940 -74.6450 94° East 491 565 33,000  Level FlightAware
01:56PM 42.7870 -74.5150 94° East 491 565 33,000  Level FlightAware
01:57PM 42.7820 -74.4170 94° East 491 565 33,000  Level FlightAware
01:57PM 42.7720 -74.2990 97° East 488 562 33,000  Level FlightAware
01:58PM 42.7580 -74.1490 97° East 488 562 33,000  Level FlightAware
01:59PM 42.7480 -74.0390 97° East 489 563 33,000  Level FlightAware
01:59PM 42.7400 -73.9540 97° East 488 562 33,000  Level FlightAware
02:00PM 42.7290 -73.8290 97° East 488 562 33,000  Level FlightAware
02:01PM 42.7170 -73.7050 97° East 488 562 33,000  Level FlightAware
02:02PM 42.7000 -73.5370 98° East 487 560 33,000 -120 Level FlightAware
02:02PM 42.6940 -73.4720 97° East 33,000 -180 Level FlightAware
02:02PM 42.6880 -73.4160 98° East 486 559 32,900 -900 Descending FlightAware
02:03PM 42.6760 -73.2920 97° East 487 560 32,200 -1,020 Descending FlightAware
02:04PM 42.6640 -73.1700 98° East 487 560 31,600 -1,020 Descending FlightAware
02:04PM 42.6520 -73.0510 98° East 487 560 30,900 -1,080 Descending FlightAware
02:05PM 42.6420 -72.9600 98° East 483 556 30,400 -1,080 Descending FlightAware
02:05PM 42.6300 -72.8450 98° East 476 548 29,700 -1,620 Descending FlightAware
02:06PM 42.6190 -72.7380 98° East 467 537 28,400 -2,340 Descending FlightAware
02:07PM 42.6070 -72.6220 98° East 459 528 26,800 -2,280 Descending FlightAware
02:07PM 42.5950 -72.5090 98° East 449 517 25,400 -2,220 Descending FlightAware
02:08PM 42.5820 -72.3840 98° East 437 503 23,700 -2,220 Descending FlightAware
02:09PM 42.5690 -72.2670 99° East 417 480 22,100 -2,280 Descending FlightAware
02:09PM 42.5600 -72.1910 99° East 404 465 20,900 -2,220 Descending FlightAware
02:10PM 42.5480 -72.0810 98° East 380 437 19,300 -2,400 Descending FlightAware
02:11PM 42.5350 -71.9360 97° East 368 423 16,500 -2,580 Descending FlightAware
02:12PM 42.5260 -71.8370 97° East 352 405 14,700 -2,700 Descending FlightAware
02:13PM 42.5170 -71.7410 97° East 350 403 12,700 -1,800 Descending FlightAware
02:13PM 42.5090 -71.6580 97° East 318 366 12,200 -960 Descending FlightAware
02:14PM 42.5020 -71.5800 97° East 290 334 11,400 -1,020 Descending FlightAware
02:15PM 42.5130 -71.5180 76° East 267 307 10,900 -900 Descending FlightAware
02:15PM 42.5280 -71.4470 74° East 248 285 10,200 -1,020 Descending FlightAware
02:16PM 42.5320 -71.4260 76° East 247 284 9,900 -1,320 Descending FlightAware
02:16PM 42.5410 -71.3880 72° East 246 283 9,400 -1,080 Descending FlightAware
02:16PM 42.5490 -71.3540 72° East 246 283 9,000 -840 Descending FlightAware
02:17PM 42.5600 -71.3230 64° Northeast 245 282 8,800 -240 Descending FlightAware
02:17PM 42.5720 -71.2840 67° East 241 277 8,800  Level FlightAware
02:18PM 42.5640 -71.2410 104° East 238 274 8,800  Level FlightAware
02:18PM 42.5510 -71.2020 114° Southeast 238 274 8,800  Level FlightAware
02:19PM 42.5390 -71.1630 113° Southeast 237 273 8,800  Level FlightAware
02:19PM 42.5280 -71.1260 112° Southeast 235 270 8,800  Level FlightAware
02:20PM 42.5160 -71.0920 116° Southeast 233 268 8,800 -480 Level FlightAware
02:20PM 42.5050 -71.0770 135° Southeast 230 265 8,500 -1,440 Descending FlightAware
02:20PM 42.4910 -71.0640 146° Southeast 237 273 8,100 -1,260 Descending FlightAware
02:20PM 42.4680 -71.0410 144° Southeast 236 272 7,600 -1,080 Descending FlightAware
02:21PM 42.4470 -71.0200 144° Southeast 234 269 7,200 -1,020 Descending FlightAware
02:21PM 42.4200 -70.9970 148° Southeast 229 264 6,700 -1,020 Descending FlightAware
02:22PM 42.3900 -70.9860 165° South 218 251 6,200 -1,020 Descending FlightAware
02:22PM 42.3640 -70.9780 167° South 230 265 5,800 -600 Descending FlightAware
02:23PM 42.3480 -70.9730 167° South 233 268 5,800  Level FlightAware
02:23PM 42.3170 -70.9640 168° South 231 266 5,800 -660 Level FlightAware
02:23PM 42.2900 -70.9560 168° South 229 264 5,200 -1,200 Descending FlightAware
02:24PM 42.2610 -70.9480 168° South 229 264 4,700 -1,080 Descending FlightAware
02:25PM 42.2160 -70.9630 194° South 241 277 4,000 -780 Descending FlightAware
02:25PM 42.1790 -70.9790 198° South 237 273 3,700 -660 Descending FlightAware
02:27PM 42.2000 -71.0833 198° South 189 217 2,700 -780 Descending KA90